createdAt,value
2018-11-03T00:00:42.770Z,96.97
2018-11-03T00:03:11.668Z,98.14
2018-11-03T00:05:40.536Z,98.39
2018-11-03T00:08:09.351Z,98.78
2018-11-03T00:10:38.191Z,99.23
2018-11-03T00:13:07.005Z,98.88
2018-11-03T00:15:36.655Z,98.59
2018-11-03T00:18:06.092Z,98.15
2018-11-03T00:20:34.999Z,97.68
2018-11-03T00:23:03.948Z,97.82
2018-11-03T00:25:32.842Z,97.06
2018-11-03T00:28:01.794Z,95.73
2018-11-03T00:30:35.316Z,96.23
2018-11-03T00:33:04.344Z,96.80
2018-11-03T00:35:33.177Z,96.68
2018-11-03T00:38:02.117Z,96.42
2018-11-03T00:40:30.970Z,97.05
2018-11-03T00:43:00.367Z,97.39
2018-11-03T00:45:29.176Z,97.79
2018-11-03T00:47:59.022Z,98.03
2018-11-03T00:50:27.953Z,97.31
2018-11-03T00:52:56.826Z,96.59
2018-11-03T00:55:25.873Z,97.02
2018-11-03T00:57:54.750Z,97.46
2018-11-03T01:00:23.616Z,98.33
2018-11-03T01:02:52.623Z,97.54
2018-11-03T01:05:21.413Z,98.57
2018-11-03T01:07:50.312Z,98.93
2018-11-03T01:10:19.153Z,99.24
2018-11-03T01:12:48.015Z,98.30
2018-11-03T01:15:17.601Z,97.87
2018-11-03T01:17:46.570Z,98.11
2018-11-03T01:20:16.510Z,97.03
2018-11-03T01:22:45.491Z,97.11
2018-11-03T01:25:14.320Z,96.81
2018-11-03T01:27:43.866Z,96.48
2018-11-03T01:30:14.714Z,96.61
2018-11-03T01:32:44.141Z,96.05
2018-11-03T01:35:12.982Z,97.30
2018-11-03T01:37:41.860Z,97.32
2018-11-03T01:40:12.569Z,98.45
2018-11-03T01:42:41.482Z,98.27
2018-11-03T01:45:10.384Z,98.48
2018-11-03T01:47:39.232Z,98.00
2018-11-03T01:50:10.897Z,98.16
2018-11-03T01:52:40.548Z,98.74
2018-11-03T01:55:09.389Z,99.30
2018-11-03T01:57:38.521Z,100.00
2018-11-03T02:00:08.592Z,100.00
2018-11-03T02:02:37.686Z,99.94
2018-11-03T02:05:08.697Z,100.00
2018-11-03T02:07:39.355Z,99.10
2018-11-03T02:10:10.190Z,98.15
2018-11-03T02:12:39.066Z,97.87
2018-11-03T02:15:08.573Z,98.20
2018-11-03T02:17:37.416Z,98.06
2018-11-03T02:20:07.930Z,98.55
2018-11-03T02:22:37.106Z,98.89
2018-11-03T02:25:06.277Z,98.66
2018-11-03T02:27:35.173Z,97.95
2018-11-03T02:30:04.255Z,97.84
2018-11-03T02:32:33.402Z,98.14
2018-11-03T02:35:02.280Z,97.97
2018-11-03T02:39:54.157Z,97.59
2018-11-03T02:42:23.035Z,98.04
2018-11-03T02:44:57.853Z,97.58
2018-11-03T02:47:26.659Z,98.06
2018-11-03T02:49:55.548Z,98.24
2018-11-03T02:52:24.479Z,98.15
2018-11-03T02:54:53.370Z,98.36
2018-11-03T02:57:22.240Z,97.70
2018-11-03T02:59:51.092Z,98.20
2018-11-03T03:02:19.937Z,99.11
2018-11-03T03:04:48.803Z,99.30
2018-11-03T03:07:17.820Z,99.77
2018-11-03T03:09:46.628Z,100.00
2018-11-03T03:12:15.753Z,99.50
2018-11-03T03:14:44.665Z,99.72
2018-11-03T03:17:14.196Z,100.00
2018-11-03T03:19:43.317Z,100.00
2018-11-03T03:22:12.219Z,100.00
2018-11-03T03:24:41.043Z,99.58
2018-11-03T03:27:09.950Z,99.09
2018-11-03T03:29:39.000Z,99.32
2018-11-03T03:32:07.886Z,99.55
2018-11-03T03:34:36.789Z,98.70
2018-11-03T03:37:05.771Z,98.65
2018-11-03T03:39:34.563Z,99.04
2018-11-03T03:42:03.551Z,98.89
2018-11-03T03:44:32.584Z,98.55
2018-11-03T03:47:01.472Z,98.16
2018-11-03T03:49:30.260Z,98.05
2018-11-03T03:51:59.252Z,98.06
2018-11-03T03:54:28.164Z,97.46
2018-11-03T03:56:56.982Z,98.73
2018-11-03T03:59:25.862Z,98.33
2018-11-03T04:01:54.698Z,99.52
2018-11-03T04:04:23.609Z,98.84
2018-11-03T04:06:53.110Z,97.83
2018-11-03T04:09:21.972Z,98.40
2018-11-03T04:11:50.807Z,98.05
2018-11-03T04:14:19.702Z,99.29
2018-11-03T04:16:48.555Z,99.62
2018-11-03T04:19:17.486Z,99.84
2018-11-03T04:21:46.292Z,100.00
2018-11-03T04:24:15.461Z,100.00
2018-11-03T04:26:44.291Z,100.00
2018-11-03T04:29:13.146Z,100.00
2018-11-03T04:31:42.027Z,100.00
2018-11-03T04:34:10.893Z,100.00
2018-11-03T04:36:39.725Z,100.00
2018-11-03T04:39:08.584Z,100.00
2018-11-03T04:41:37.373Z,100.00
2018-11-03T04:44:06.370Z,100.00
2018-11-03T04:46:35.165Z,100.00
2018-11-03T04:49:04.131Z,99.75
2018-11-03T04:51:34.027Z,100.00
2018-11-03T04:54:02.966Z,99.85
2018-11-03T04:56:31.828Z,99.42
2018-11-03T04:59:00.665Z,99.65
2018-11-03T05:01:29.558Z,99.49
2018-11-03T05:03:58.370Z,99.88
2018-11-03T05:06:27.228Z,99.30
2018-11-03T05:08:56.212Z,99.47
2018-11-03T05:11:25.081Z,99.89
2018-11-03T05:13:53.912Z,99.75
2018-11-03T05:16:22.787Z,98.95
2018-11-03T05:18:51.620Z,98.94
2018-11-03T05:21:20.625Z,98.77
2018-11-03T05:23:49.424Z,99.33
2018-11-03T05:26:18.565Z,99.85
2018-11-03T05:28:47.660Z,99.10
2018-11-03T05:31:16.650Z,99.37
2018-11-03T05:33:45.512Z,98.76
2018-11-03T05:36:14.379Z,99.44
2018-11-03T05:38:43.171Z,100.00
2018-11-03T05:41:12.071Z,99.60
2018-11-03T05:43:40.880Z,99.51
2018-11-03T05:46:10.186Z,98.73
2018-11-03T05:48:39.020Z,98.03
2018-11-03T05:51:07.918Z,97.52
2018-11-03T05:53:36.843Z,96.62
2018-11-03T05:56:05.787Z,96.15
2018-11-03T05:58:34.758Z,95.69
2018-11-03T06:01:03.616Z,96.25
2018-11-03T06:03:32.468Z,96.49
2018-11-03T06:06:01.296Z,96.02
2018-11-03T06:08:30.363Z,96.21
2018-11-03T06:11:00.058Z,97.30
2018-11-03T06:13:28.970Z,97.88
2018-11-03T06:15:57.803Z,98.28
2018-11-03T06:18:26.749Z,98.09
2018-11-03T06:20:55.606Z,96.83
2018-11-03T06:23:24.591Z,97.57
2018-11-03T06:25:53.414Z,98.08
2018-11-03T06:28:22.324Z,98.08
2018-11-03T06:30:51.172Z,99.03
2018-11-03T06:33:20.114Z,98.82
2018-11-03T06:35:48.981Z,98.77
2018-11-03T06:38:17.832Z,99.34
2018-11-03T06:40:46.695Z,100.00
2018-11-03T06:43:15.578Z,100.00
2018-11-03T06:45:44.585Z,100.00
2018-11-03T06:48:13.585Z,100.00
2018-11-03T06:50:42.492Z,100.00
2018-11-03T06:53:12.391Z,100.00
2018-11-03T06:55:41.329Z,100.00
2018-11-03T06:58:10.157Z,100.00
2018-11-03T07:00:39.128Z,100.00
2018-11-03T07:03:07.954Z,100.00
2018-11-03T07:05:36.882Z,100.00
2018-11-03T07:08:06.373Z,100.00
2018-11-03T07:10:35.305Z,100.00
2018-11-03T07:13:04.935Z,100.00
2018-11-03T07:15:33.709Z,100.00
2018-11-03T07:18:02.563Z,100.00
2018-11-03T07:20:31.471Z,99.77
2018-11-03T07:23:00.667Z,100.00
2018-11-03T07:25:30.025Z,100.00
2018-11-03T07:28:00.058Z,100.00
2018-11-03T07:30:31.398Z,100.00
2018-11-03T07:33:00.345Z,100.00
2018-11-03T07:35:30.879Z,100.00
2018-11-03T07:38:00.669Z,100.00
2018-11-03T07:40:30.074Z,100.00
2018-11-03T07:42:59.438Z,99.78
2018-11-03T07:45:28.335Z,97.95
2018-11-03T07:47:57.206Z,96.45
2018-11-03T07:50:26.150Z,95.91
2018-11-03T07:52:55.025Z,95.57
2018-11-03T07:55:23.851Z,96.28
2018-11-03T07:57:52.727Z,98.32
2018-11-03T08:00:22.283Z,99.41
2018-11-03T08:02:51.134Z,100.00
2018-11-03T08:05:19.946Z,98.61
2018-11-03T08:07:48.815Z,97.25
2018-11-03T08:10:17.911Z,96.25
2018-11-03T08:12:46.823Z,96.82
2018-11-03T08:15:15.757Z,96.88
2018-11-03T08:17:44.725Z,98.35
2018-11-03T08:20:13.591Z,98.43
2018-11-03T08:22:42.510Z,96.87
2018-11-03T08:25:11.363Z,97.91
2018-11-03T08:27:40.324Z,98.55
2018-11-03T08:30:11.626Z,99.16
2018-11-03T08:32:40.532Z,99.35
2018-11-03T08:35:10.596Z,98.12
2018-11-03T08:37:39.974Z,97.46
2018-11-03T08:40:11.076Z,95.62
2018-11-03T08:42:40.437Z,94.38
2018-11-03T08:45:14.146Z,94.91
2018-11-03T08:47:43.316Z,94.52
2018-11-03T08:50:12.803Z,94.36
2018-11-03T08:52:42.210Z,94.60
2018-11-03T08:55:12.260Z,93.48
2018-11-03T08:57:41.491Z,94.20
2018-11-03T09:00:13.001Z,94.16
2018-11-03T09:02:42.176Z,94.40
2018-11-03T09:05:11.618Z,95.74
2018-11-03T09:07:40.685Z,96.65
2018-11-03T09:10:12.819Z,95.76
2018-11-03T09:12:42.179Z,94.63
2018-11-03T09:15:12.361Z,95.21
2018-11-03T09:17:42.075Z,94.38
2018-11-03T09:20:12.576Z,93.62
2018-11-03T09:22:41.551Z,94.09
2018-11-03T09:25:12.875Z,93.41
2018-11-03T09:27:42.756Z,92.90
2018-11-03T09:30:16.291Z,92.43
2018-11-03T09:32:45.122Z,93.74
2018-11-03T09:35:14.897Z,92.71
2018-11-03T09:37:43.788Z,92.03
2018-11-03T09:40:14.200Z,92.42
2018-11-03T09:42:44.000Z,92.35
2018-11-03T09:45:18.828Z,91.19
2018-11-03T09:47:47.733Z,90.46
2018-11-03T09:50:16.567Z,89.78
2018-11-03T09:52:45.441Z,89.30
2018-11-03T09:55:17.015Z,89.22
2018-11-03T09:57:46.505Z,89.33
2018-11-03T10:00:16.781Z,89.51
2018-11-03T10:02:45.828Z,87.93
2018-11-03T10:05:15.091Z,87.65
2018-11-03T10:07:44.005Z,87.66
2018-11-03T10:10:19.074Z,87.51
2018-11-03T10:12:48.060Z,87.30
2018-11-03T10:15:17.966Z,86.98
2018-11-03T10:17:46.989Z,87.13
2018-11-03T10:20:15.831Z,86.82
2018-11-03T10:22:44.736Z,86.79
2018-11-03T10:25:15.744Z,86.91
2018-11-03T10:27:45.508Z,87.15
2018-11-03T10:30:15.267Z,85.54
2018-11-03T10:32:44.448Z,85.27
2018-11-03T10:35:13.857Z,85.86
2018-11-03T10:37:43.010Z,85.43
2018-11-03T10:40:14.554Z,84.79
2018-11-03T10:42:43.543Z,83.94
2018-11-03T10:45:13.668Z,82.83
2018-11-03T10:47:42.733Z,83.62
2018-11-03T10:50:15.123Z,83.05
2018-11-03T10:52:44.779Z,83.01
2018-11-03T10:55:15.080Z,82.62
2018-11-03T10:57:44.224Z,82.05
2018-11-03T11:00:22.223Z,81.99
2018-11-03T11:02:56.787Z,81.94
2018-11-03T11:05:31.352Z,81.83
2018-11-03T11:08:05.945Z,81.66
2018-11-03T11:10:40.422Z,80.57
2018-11-03T11:13:15.267Z,79.93
2018-11-03T11:15:44.671Z,80.86
2018-11-03T11:18:13.463Z,80.95
2018-11-03T11:20:42.813Z,80.23
2018-11-03T11:23:11.701Z,79.64
2018-11-03T11:25:40.524Z,78.49
2018-11-03T11:28:09.724Z,78.48
2018-11-03T11:30:39.944Z,79.37
2018-11-03T11:33:12.048Z,79.42
2018-11-03T11:35:41.275Z,78.98
2018-11-03T11:38:10.886Z,78.44
2018-11-03T11:40:40.105Z,77.52
2018-11-03T11:43:10.030Z,77.09
2018-11-03T11:45:45.242Z,77.87
2018-11-03T11:48:14.101Z,77.25
2018-11-03T11:50:43.032Z,77.41
2018-11-03T11:53:12.257Z,77.45
2018-11-03T11:55:41.156Z,77.80
2018-11-03T11:58:09.959Z,76.39
2018-11-03T12:00:38.957Z,76.74
2018-11-03T12:03:07.671Z,77.21
2018-11-03T12:05:36.638Z,75.43
2018-11-03T12:08:05.838Z,75.77
2018-11-03T12:10:34.740Z,75.92
2018-11-03T12:13:03.564Z,76.09
2018-11-03T12:15:32.504Z,75.84
2018-11-03T12:18:01.360Z,75.63
2018-11-03T12:20:30.319Z,75.53
2018-11-03T12:22:59.136Z,73.85
2018-11-03T12:25:28.070Z,74.38
2018-11-03T12:27:56.927Z,74.33
2018-11-03T12:30:25.858Z,73.68
2018-11-03T12:32:54.818Z,74.12
2018-11-03T12:35:23.814Z,75.18
2018-11-03T12:37:52.605Z,75.39
2018-11-03T12:40:24.444Z,75.63
2018-11-03T12:42:53.622Z,75.54
2018-11-03T12:45:22.519Z,75.07
2018-11-03T12:47:51.378Z,73.55
2018-11-03T12:50:21.874Z,74.81
2018-11-03T12:52:50.797Z,74.98
2018-11-03T12:55:19.626Z,74.94
2018-11-03T12:57:48.810Z,73.67
2018-11-03T13:00:17.604Z,73.61
2018-11-03T13:02:46.859Z,74.04
2018-11-03T13:05:16.266Z,73.57
2018-11-03T13:07:45.796Z,73.36
2018-11-03T13:10:14.710Z,72.46
2018-11-03T13:12:43.621Z,72.80
2018-11-03T13:15:13.195Z,73.07
2018-11-03T13:17:42.038Z,72.69
2018-11-03T13:20:12.947Z,72.46
2018-11-03T13:22:42.675Z,72.25
2018-11-03T13:25:11.852Z,72.32
2018-11-03T13:27:41.294Z,72.27
2018-11-03T13:30:12.498Z,71.63
2018-11-03T13:32:41.396Z,72.80
2018-11-03T13:35:11.717Z,72.29
2018-11-03T13:37:40.692Z,72.38
2018-11-03T13:40:11.051Z,72.77
2018-11-03T13:42:40.152Z,72.11
2018-11-03T13:45:13.914Z,71.76
2018-11-03T13:47:42.927Z,69.37
2018-11-03T13:50:13.063Z,70.10
2018-11-03T13:52:44.096Z,69.94
2018-11-03T13:55:13.722Z,69.44
2018-11-03T13:57:43.864Z,70.13
2018-11-03T14:00:17.533Z,71.23
2018-11-03T14:02:47.310Z,71.19
2018-11-03T14:05:16.219Z,69.53
2018-11-03T14:07:45.107Z,71.26
2018-11-03T14:10:15.058Z,70.55
2018-11-03T14:12:44.681Z,70.28
2018-11-03T14:15:14.912Z,69.72
2018-11-03T14:17:43.763Z,71.23
2018-11-03T14:20:13.697Z,71.63
2018-11-03T14:46:13.412Z,76.21
2018-11-03T14:48:42.371Z,76.55
2018-11-03T14:51:11.275Z,76.10
2018-11-03T14:53:40.127Z,76.36
2018-11-03T14:56:08.988Z,77.05
2018-11-03T14:58:38.136Z,76.67
2018-11-03T15:01:07.099Z,76.91
2018-11-03T15:03:35.932Z,77.77
2018-11-03T15:06:05.022Z,78.22
2018-11-03T15:08:33.888Z,78.01
2018-11-03T15:11:02.749Z,77.45
2018-11-03T15:13:31.667Z,77.97
2018-11-03T15:16:00.520Z,78.09
2018-11-03T15:18:29.346Z,77.51
2018-11-03T15:20:58.254Z,78.46
2018-11-03T15:23:27.131Z,78.94
2018-11-03T15:25:56.080Z,79.39
2018-11-03T15:28:24.924Z,79.97
2018-11-03T15:30:53.784Z,80.58
2018-11-03T15:33:22.605Z,81.10
2018-11-03T15:35:51.422Z,81.90
2018-11-03T15:38:20.312Z,82.14
2018-11-03T15:40:49.373Z,82.01
2018-11-03T15:43:18.283Z,82.55
2018-11-03T15:45:47.162Z,83.37
2018-11-03T15:48:16.305Z,83.47
2018-11-03T15:50:48.760Z,83.77
2018-11-03T15:53:17.782Z,84.36
2018-11-03T15:55:47.969Z,85.02
2018-11-03T15:58:18.643Z,85.00
2018-11-03T16:00:49.046Z,85.42
2018-11-03T16:03:19.450Z,85.79
2018-11-03T16:05:48.510Z,85.65
2018-11-03T16:08:18.743Z,86.29
2018-11-03T16:10:47.782Z,86.36
2018-11-03T16:13:16.767Z,87.17
2018-11-03T16:15:45.593Z,87.01
2018-11-03T16:18:14.545Z,87.33
2018-11-03T16:20:45.398Z,87.62
2018-11-03T16:23:14.439Z,88.39
2018-11-03T16:25:43.617Z,88.21
2018-11-03T16:28:12.542Z,88.55
2018-11-03T16:30:41.392Z,88.60
2018-11-03T16:33:10.284Z,89.00
2018-11-03T16:35:39.142Z,89.39
2018-11-03T16:38:08.472Z,89.56
2018-11-03T16:40:37.287Z,90.39
2018-11-03T16:43:06.255Z,90.80
2018-11-03T16:45:35.214Z,91.08
2018-11-03T16:48:04.576Z,91.29
2018-11-03T16:50:33.769Z,91.55
2018-11-03T16:53:02.673Z,91.80
2018-11-03T16:55:32.037Z,91.91
2018-11-03T16:58:00.822Z,91.43
2018-11-03T17:00:29.701Z,91.93
2018-11-03T17:02:58.626Z,92.04
2018-11-03T17:05:27.500Z,92.72
2018-11-03T17:07:56.333Z,92.70
2018-11-03T17:10:25.216Z,92.81
2018-11-03T17:12:54.081Z,92.75
2018-11-03T17:15:23.110Z,93.63
2018-11-03T17:17:51.944Z,93.21
2018-11-03T17:20:20.839Z,93.51
2018-11-03T17:22:49.701Z,93.42
2018-11-03T17:25:18.956Z,92.91
2018-11-03T17:27:47.844Z,93.20
2018-11-03T17:30:16.721Z,93.80
2018-11-03T17:32:45.577Z,94.55
2018-11-03T17:35:14.489Z,94.76
2018-11-03T17:37:43.727Z,95.21
2018-11-03T17:40:12.803Z,94.88
2018-11-03T17:42:41.627Z,94.35
2018-11-03T17:45:13.353Z,94.87
2018-11-03T17:47:42.254Z,94.82
2018-11-03T17:50:12.631Z,94.17
2018-11-03T17:52:41.697Z,94.83
2018-11-03T17:55:10.957Z,94.70
2018-11-03T17:57:39.879Z,95.40
2018-11-03T18:00:12.820Z,95.98
2018-11-03T18:02:42.475Z,95.94
2018-11-03T18:05:11.408Z,96.44
2018-11-03T18:07:40.292Z,95.57
2018-11-03T18:10:11.157Z,96.15
2018-11-03T18:12:40.313Z,97.02
2018-11-03T18:15:09.715Z,97.01
2018-11-03T18:17:38.734Z,97.60
2018-11-03T18:20:08.845Z,97.69
2018-11-03T18:22:37.910Z,96.97
2018-11-03T18:25:07.111Z,95.39
2018-11-03T18:27:35.967Z,95.62
2018-11-03T18:30:06.100Z,96.25
2018-11-03T18:32:34.991Z,94.78
2018-11-03T18:35:03.896Z,95.04
2018-11-03T18:37:32.856Z,96.12
2018-11-03T18:40:01.698Z,96.76
2018-11-03T18:42:30.587Z,97.33
2018-11-03T18:44:59.502Z,97.49
2018-11-03T18:47:28.419Z,97.48
2018-11-03T18:49:57.273Z,97.92
2018-11-03T18:52:26.167Z,97.87
2018-11-03T18:54:55.151Z,97.86
2018-11-03T18:57:24.074Z,98.06
2018-11-03T18:59:52.992Z,98.47
2018-11-03T19:02:21.915Z,98.27
2018-11-03T19:04:50.825Z,98.27
2018-11-03T19:07:19.749Z,98.31
2018-11-03T19:09:48.647Z,98.33
2018-11-03T19:12:17.506Z,98.61
2018-11-03T19:14:46.400Z,98.48
2018-11-03T19:17:15.407Z,97.98
2018-11-03T19:19:44.294Z,97.47
2018-11-03T19:22:13.167Z,97.94
2018-11-03T19:24:42.037Z,98.10
2018-11-03T19:27:11.300Z,97.66
2018-11-03T19:29:40.590Z,97.58
2018-11-03T19:32:09.668Z,97.58
2018-11-03T19:34:39.024Z,97.44
2018-11-03T19:37:07.889Z,97.48
2018-11-03T19:39:37.677Z,97.27
2018-11-03T19:42:06.936Z,97.66
2018-11-03T19:44:36.369Z,98.12
2018-11-03T19:47:05.548Z,97.30
2018-11-03T19:49:35.464Z,96.96
2018-11-03T19:52:05.269Z,96.06
2018-11-03T19:54:34.447Z,96.68
2018-11-03T19:57:03.425Z,96.96
2018-11-03T19:59:32.262Z,97.15
2018-11-03T20:02:01.222Z,97.26
2018-11-03T20:04:30.076Z,96.77
2018-11-03T20:06:59.005Z,96.84
2018-11-03T20:09:27.933Z,96.20
2018-11-03T20:11:57.150Z,96.00
2018-11-03T20:14:26.377Z,95.85
2018-11-03T20:16:55.670Z,96.10
2018-11-03T20:19:24.508Z,96.72
2018-11-03T20:21:53.511Z,96.60
2018-11-03T20:24:22.726Z,96.18
2018-11-03T20:26:52.062Z,97.17
2018-11-03T20:29:20.874Z,97.39
2018-11-03T20:31:49.798Z,97.96
2018-11-03T20:34:18.753Z,97.85
2018-11-03T20:36:47.738Z,98.61
2018-11-03T20:39:16.853Z,99.58
2018-11-03T20:41:45.727Z,99.58
2018-11-03T20:44:14.813Z,99.11
2018-11-03T20:46:43.717Z,99.57
2018-11-03T20:49:12.598Z,98.82
2018-11-03T20:51:41.609Z,98.58
2018-11-03T20:54:10.557Z,99.33
2018-11-03T20:56:39.409Z,99.43
2018-11-03T20:59:08.535Z,99.75
2018-11-03T21:01:37.379Z,99.07
2018-11-03T21:04:06.279Z,99.01
2018-11-03T21:06:35.299Z,98.76
2018-11-03T21:09:05.568Z,98.94
2018-11-03T21:11:34.446Z,99.51
2018-11-03T21:14:03.371Z,98.17
2018-11-03T21:16:32.336Z,98.40
2018-11-03T21:19:01.435Z,98.00
2018-11-03T21:21:30.394Z,97.90
2018-11-03T21:23:59.731Z,98.12
2018-11-03T21:26:28.497Z,98.17
2018-11-03T21:28:57.456Z,99.07
2018-11-03T21:31:26.380Z,100.00
2018-11-03T21:33:55.430Z,100.00
2018-11-03T21:36:24.361Z,100.00
2018-11-03T21:38:54.316Z,100.00
2018-11-03T21:41:23.949Z,99.61
2018-11-03T21:43:52.809Z,100.00
2018-11-03T21:46:21.689Z,99.93
2018-11-03T21:48:50.613Z,100.00
2018-11-03T21:51:19.525Z,100.00
2018-11-03T21:53:48.393Z,100.00
2018-11-03T21:56:17.279Z,100.00
2018-11-03T21:58:46.102Z,100.00
2018-11-03T22:01:15.097Z,100.00
2018-11-03T22:03:43.952Z,100.00
2018-11-03T22:06:12.906Z,100.00
2018-11-03T22:08:41.711Z,100.00
2018-11-03T22:11:10.627Z,100.00
2018-11-03T22:13:39.569Z,100.00
2018-11-03T22:16:08.749Z,99.36
2018-11-03T22:18:37.613Z,99.78
2018-11-03T22:21:06.524Z,99.97
2018-11-03T22:23:35.381Z,100.00
2018-11-03T22:26:05.625Z,100.00
2018-11-03T22:28:34.472Z,99.12
2018-11-03T22:31:03.407Z,98.77
2018-11-03T22:33:32.290Z,99.37
2018-11-03T22:36:01.112Z,99.57
2018-11-03T22:38:30.045Z,100.00
2018-11-03T22:40:59.143Z,100.00
2018-11-03T22:43:28.035Z,100.00
2018-11-03T22:45:56.984Z,100.00
2018-11-03T22:48:25.868Z,100.00
2018-11-03T22:50:54.802Z,100.00
2018-11-03T22:53:23.786Z,100.00
2018-11-03T22:55:52.616Z,100.00
2018-11-03T22:58:21.505Z,100.00
2018-11-03T23:00:57.143Z,100.00
2018-11-03T23:03:26.756Z,100.00
2018-11-03T23:05:55.616Z,100.00
2018-11-03T23:08:24.713Z,100.00
2018-11-03T23:10:53.519Z,100.00
2018-11-03T23:13:22.434Z,100.00
2018-11-03T23:15:51.350Z,100.00
2018-11-03T23:18:20.226Z,100.00
2018-11-03T23:20:49.031Z,100.00
2018-11-03T23:23:17.920Z,100.00
2018-11-03T23:25:46.745Z,100.00
2018-11-03T23:28:15.689Z,100.00
2018-11-03T23:30:44.493Z,100.00
2018-11-03T23:33:13.364Z,100.00
2018-11-03T23:35:42.236Z,100.00
2018-11-03T23:38:11.144Z,100.00
2018-11-03T23:40:40.257Z,100.00
2018-11-03T23:43:09.417Z,100.00
2018-11-03T23:45:38.302Z,100.00
2018-11-03T23:48:07.201Z,100.00
2018-11-03T23:50:36.157Z,100.00
2018-11-03T23:53:05.288Z,100.00
2018-11-03T23:55:34.190Z,100.00
2018-11-03T23:58:03.276Z,100.00
